Time;durP1;ratioP1;P1;durP2;ratioP2;P2;SDS_P1;SDS_P2;PMS_P1;PMS_P2;Temp;Humidity;BMP_temperature;BMP_pressure;BME280_temperature;BME280_humidity;BME280_pressure;Samples;Min_cycle;Max_cycle;Signal;HPM_P1;HPM_P2
2023/03/13 00:01:53;;;;;;;;;;;;;;;6.45;46.53;100021.59;5091272;28;19969;-41
2023/03/13 00:04:18;;;;;;;;;;;;;;;6.64;45.08;100026.53;5090520;28;20395;-42
2023/03/13 00:06:44;;;;;;;;;;;;;;;6.52;44.78;100025.22;5091121;28;19916;-41
2023/03/13 00:09:11;;;;;;;;;;;;;;;6.36;46.22;100017.34;5091526;28;19912;-42
2023/03/13 00:11:36;;;;;;;;;;;;;;;6.36;45.60;100019.97;5090983;28;19912;-41
2023/03/13 00:14:02;;;;;;;;;;;;;;;6.41;46.34;100021.13;5090982;28;19913;-41
2023/03/13 00:16:28;;;;;;;;;;;;;;;6.53;46.17;100020.75;5091104;28;19916;-41
2023/03/13 00:18:54;;;;;;;;;;;;;;;6.56;45.86;100026.53;5090906;28;19912;-41
2023/03/13 00:21:21;;;;;;;;;;;;;;;6.62;45.00;100027.66;5091038;28;19965;-41
2023/03/13 00:23:47;;;;;;;;;;;;;;;6.34;45.85;100022.81;5090739;28;19924;-41
2023/03/13 00:26:13;;;;;;;;;;;;;;;6.45;45.71;100025.09;5090830;28;19912;-42
2023/03/13 00:28:39;;;;;;;;;;;;;;;6.17;45.74;100027.31;5091184;28;19912;-41
2023/03/13 00:31:18;;;;;;;;;;;;;;;6.12;45.56;100026.97;5090866;28;20003;-41
2023/03/13 00:33:44;;;;;;;;;;;;;;;5.93;46.45;100029.94;5090580;28;19924;-41
2023/03/13 00:36:11;;;;;;;;;;;;;;;6.06;46.01;100025.00;5090917;28;19947;-42
2023/03/13 00:38:36;;;;;;;;;;;;;;;5.94;46.05;100026.28;5090803;28;19999;-41
2023/03/13 00:41:06;;;;;;;;;;;;;;;6.22;46.08;100019.66;5090689;28;20020;-41
2023/03/13 00:43:32;;;;;;;;;;;;;;;6.41;45.52;100013.19;5090835;28;19912;-41
2023/03/13 00:45:58;;;;;;;;;;;;;;;6.15;45.46;100018.72;5090790;28;20313;-42
2023/03/13 00:48:23;;;;;;;;;;;;;;;6.11;45.77;100004.19;5090678;28;19913;-43
2023/03/13 00:50:48;;;;;;;;;;;;;;;6.23;45.28;100016.06;5090616;28;19920;-42
2023/03/13 00:53:14;;;;;;;;;;;;;;;6.17;46.48;100010.59;5090909;28;19919;-40
2023/03/13 00:55:49;;;;;;;;;;;;;;;6.23;46.44;100016.06;5090728;28;19963;-42
2023/03/13 00:58:14;;;;;;;;;;;;;;;6.14;45.72;100008.31;5090287;28;19912;-42
2023/03/13 01:00:39;;;;;;;;;;;;;;;5.84;46.76;100013.25;5090650;28;20002;-42
2023/03/13 01:03:05;;;;;;;;;;;;;;;5.99;46.67;100010.81;5090622;28;19969;-41
2023/03/13 01:05:30;;;;;;;;;;;;;;;6.03;46.09;100012.13;5090554;28;19995;-42
2023/03/13 01:07:55;;;;;;;;;;;;;;;5.97;46.29;100012.78;5090538;28;19912;-42
2023/03/13 01:10:20;;;;;;;;;;;;;;;5.86;46.50;100016.56;5090573;28;20113;-42
2023/03/13 01:12:46;;;;;;;;;;;;;;;5.78;46.79;100014.75;5090302;28;19912;-42
2023/03/13 01:15:11;;;;;;;;;;;;;;;6.06;46.24;100011.78;5093005;28;20343;-42
2023/03/13 01:17:36;;;;;;;;;;;;;;;6.18;46.30;100010.44;5094028;28;19920;-42
2023/03/13 01:20:02;;;;;;;;;;;;;;;5.82;46.82;100007.31;5093992;28;20517;-42
2023/03/13 01:22:27;;;;;;;;;;;;;;;5.74;46.90;100013.44;5093942;28;19973;-42
2023/03/13 01:24:52;;;;;;;;;;;;;;;5.99;46.18;100005.53;5093704;28;20569;-41
2023/03/13 01:27:18;;;;;;;;;;;;;;;5.97;46.31;100008.31;5094170;28;19919;-43
2023/03/13 01:29:43;;;;;;;;;;;;;;;5.73;46.65;100016.22;5093871;28;19912;-41
2023/03/13 01:32:09;;;;;;;;;;;;;;;5.74;47.08;100015.25;5093907;28;19936;-42
2023/03/13 01:34:34;;;;;;;;;;;;;;;5.76;47.73;100023.84;5093676;28;20311;-42
2023/03/13 01:36:59;;;;;;;;;;;;;;;5.46;47.98;100026.97;5093569;28;19923;-41
2023/03/13 01:39:25;;;;;;;;;;;;;;;5.51;48.17;100030.91;5093865;28;19912;-42
2023/03/13 01:41:50;;;;;;;;;;;;;;;5.27;48.75;100030.72;5093359;28;20013;-42
2023/03/13 01:44:25;;;;;;;;;;;;;;;5.33;48.95;100042.44;5093486;28;19948;-42
2023/03/13 01:46:50;;;;;;;;;;;;;;;5.24;48.72;100038.94;5093563;28;19981;-42
2023/03/13 01:49:24;;;;;;;;;;;;;;;5.36;49.05;100042.09;5093543;28;20314;-42
2023/03/13 01:51:58;;;;;;;;;;;;;;;4.96;49.71;100043.66;5093438;28;19978;-41
2023/03/13 01:54:26;;;;;;;;;;;;;;;5.11;49.65;100045.69;5093746;28;19930;-41
2023/03/13 01:57:00;;;;;;;;;;;;;;;4.94;49.43;100042.97;5093811;28;19944;-42
2023/03/13 01:59:33;;;;;;;;;;;;;;;4.85;50.05;100044.75;5093795;28;20027;-42
2023/03/13 02:02:01;;;;;;;;;;;;;;;4.92;50.08;100049.41;5093973;28;19912;-42
2023/03/13 02:04:30;;;;;;;;;;;;;;;5.07;50.33;100048.63;5093904;28;20405;-42
2023/03/13 02:06:58;;;;;;;;;;;;;;;4.84;50.62;100053.66;5093285;28;20319;-42
2023/03/13 02:09:25;;;;;;;;;;;;;;;4.95;50.91;100049.94;5093314;28;19973;-42
2023/03/13 02:12:03;;;;;;;;;;;;;;;4.92;50.17;100058.16;5093725;28;19939;-41
2023/03/13 02:14:31;;;;;;;;;;;;;;;4.85;50.34;100060.56;5093234;28;20433;-42
2023/03/13 02:16:56;;;;;;;;;;;;;;;4.80;50.67;100069.97;5093082;28;19912;-42
2023/03/13 02:19:30;;;;;;;;;;;;;;;4.96;50.44;100072.66;5093512;28;19912;-42
2023/03/13 02:22:16;;;;;;;;;;;;;;;4.43;51.19;100078.97;5093726;28;20014;-41
2023/03/13 02:25:08;;;;;;;;;;;;;;;4.39;51.76;100075.81;5085728;28;20018;-41
2023/03/13 02:27:33;;;;;;;;;;;;;;;4.48;51.18;100084.63;5076440;28;19969;-42
2023/03/13 02:29:58;;;;;;;;;;;;;;;4.73;51.69;100092.69;5093141;28;20299;-42
2023/03/13 02:32:24;;;;;;;;;;;;;;;4.88;50.64;100096.38;5093086;28;20027;-41
2023/03/13 02:34:52;;;;;;;;;;;;;;;4.86;50.70;100096.53;5092623;28;19912;-42
2023/03/13 02:37:18;;;;;;;;;;;;;;;5.10;49.81;100105.50;5092948;28;19923;-42
2023/03/13 02:39:47;;;;;;;;;;;;;;;5.00;49.59;100097.72;5092954;28;19919;-42
2023/03/13 02:42:16;;;;;;;;;;;;;;;4.90;50.06;100103.13;5092977;28;20368;-42
2023/03/13 02:44:43;;;;;;;;;;;;;;;4.64;50.66;100105.78;5093388;28;19912;-42
2023/03/13 02:47:09;;;;;;;;;;;;;;;4.64;50.45;100112.88;5093103;28;19912;-42
2023/03/13 02:49:35;;;;;;;;;;;;;;;4.38;51.46;100112.88;5092742;28;19912;-41
2023/03/13 02:52:21;;;;;;;;;;;;;;;4.45;51.72;100120.00;5092993;28;20340;-42
2023/03/13 02:54:48;;;;;;;;;;;;;;;4.46;51.91;100124.31;5092233;28;20298;-41
2023/03/13 02:57:14;;;;;;;;;;;;;;;4.39;52.36;100122.44;5092479;28;20291;-42
2023/03/13 02:59:39;;;;;;;;;;;;;;;4.59;51.93;100123.91;5092811;28;19996;-42
2023/03/13 03:02:04;;;;;;;;;;;;;;;4.45;51.85;100127.09;5092780;28;19916;-41
2023/03/13 03:04:30;;;;;;;;;;;;;;;4.40;51.90;100129.34;5092527;28;20005;-42
2023/03/13 03:06:55;;;;;;;;;;;;;;;4.46;51.41;100134.03;5092539;28;20321;-42
2023/03/13 03:09:21;;;;;;;;;;;;;;;4.52;51.73;100137.88;5092602;28;19912;-42
2023/03/13 03:11:46;;;;;;;;;;;;;;;4.46;51.45;100131.41;5092508;28;20015;-42
2023/03/13 03:14:12;;;;;;;;;;;;;;;4.39;51.64;100139.06;5092583;28;19961;-42
2023/03/13 03:16:38;;;;;;;;;;;;;;;4.44;51.08;100146.53;5092447;28;19912;-43
2023/03/13 03:19:04;;;;;;;;;;;;;;;4.53;51.12;100148.22;5092231;28;19912;-41
2023/03/13 03:21:29;;;;;;;;;;;;;;;4.56;51.07;100153.19;5092565;28;20271;-40
2023/03/13 03:23:54;;;;;;;;;;;;;;;4.69;51.00;100166.81;5091917;28;19930;-40
2023/03/13 03:26:19;;;;;;;;;;;;;;;4.25;51.60;100168.63;5098645;28;19996;-41
2023/03/13 03:28:45;;;;;;;;;;;;;;;4.51;51.67;100173.91;5104049;28;19990;-41
2023/03/13 03:31:11;;;;;;;;;;;;;;;4.45;51.69;100182.44;5112488;28;19994;-41
2023/03/13 03:33:37;;;;;;;;;;;;;;;4.46;51.22;100186.75;5112573;28;19969;-41
2023/03/13 03:36:04;;;;;;;;;;;;;;;4.58;51.72;100190.78;5112290;28;20298;-42
2023/03/13 03:38:29;;;;;;;;;;;;;;;4.49;51.32;100189.91;5112352;28;19916;-41
2023/03/13 03:40:55;;;;;;;;;;;;;;;4.50;52.01;100199.44;5099227;28;19989;-41
2023/03/13 03:43:20;;;;;;;;;;;;;;;4.35;51.85;100203.63;5091687;28;20415;-40
2023/03/13 03:45:46;;;;;;;;;;;;;;;4.42;51.69;100206.47;5092003;28;20375;-41
2023/03/13 03:48:11;;;;;;;;;;;;;;;4.07;52.72;100208.13;5100072;28;19912;-41
2023/03/13 03:50:36;;;;;;;;;;;;;;;3.98;52.70;100206.38;5111999;28;19991;-40
2023/03/13 03:53:01;;;;;;;;;;;;;;;3.96;52.83;100208.34;5096406;28;19912;-40
2023/03/13 03:55:27;;;;;;;;;;;;;;;4.17;52.51;100206.25;5091068;28;19923;-41
2023/03/13 03:57:52;;;;;;;;;;;;;;;4.15;52.57;100208.22;5091548;28;19916;-40
2023/03/13 04:00:20;;;;;;;;;;;;;;;4.02;53.12;100210.41;5091607;28;19912;-41
2023/03/13 04:02:46;;;;;;;;;;;;;;;4.29;52.24;100214.75;5091736;28;19935;-40
2023/03/13 04:05:11;;;;;;;;;;;;;;;3.85;53.23;100218.13;5091910;28;20007;-41
2023/03/13 04:07:36;;;;;;;;;;;;;;;4.04;53.21;100224.25;5091546;28;20360;-40
2023/03/13 04:10:02;;;;;;;;;;;;;;;4.03;52.89;100227.84;5091585;28;19970;-41
2023/03/13 04:12:28;;;;;;;;;;;;;;;3.95;53.45;100231.22;5091213;28;20328;-41
2023/03/13 04:14:53;;;;;;;;;;;;;;;3.94;53.26;100229.59;5091610;28;19938;-41
2023/03/13 04:17:18;;;;;;;;;;;;;;;3.84;53.25;100237.50;5091406;28;19916;-40
2023/03/13 04:19:43;;;;;;;;;;;;;;;3.92;53.35;100239.41;5091527;28;20387;-41
2023/03/13 04:22:09;;;;;;;;;;;;;;;3.57;54.06;100242.81;5090490;28;20030;-41
2023/03/13 04:24:34;;;;;;;;;;;;;;;3.47;54.71;100243.66;5091455;28;19920;-41
2023/03/13 04:27:02;;;;;;;;;;;;;;;3.61;54.19;100249.44;5090981;28;19912;-42
2023/03/13 04:29:27;;;;;;;;;;;;;;;3.56;54.33;100252.50;5091074;28;19912;-41
2023/03/13 04:31:52;;;;;;;;;;;;;;;3.32;55.05;100248.56;5090880;28;19920;-41
2023/03/13 04:34:17;;;;;;;;;;;;;;;2.98;56.02;100252.69;5091467;28;20269;-40
2023/03/13 04:36:43;;;;;;;;;;;;;;;3.01;55.90;100263.75;5091419;28;19916;-40
2023/03/13 04:39:08;;;;;;;;;;;;;;;3.07;55.77;100272.88;5090990;28;20349;-40
2023/03/13 04:41:33;;;;;;;;;;;;;;;3.09;55.59;100279.66;5090535;28;19959;-40
2023/03/13 04:43:59;;;;;;;;;;;;;;;3.19;55.85;100282.25;5090023;28;20007;-40
2023/03/13 04:46:24;;;;;;;;;;;;;;;3.05;56.01;100274.84;5090146;28;20470;-41
2023/03/13 04:48:49;;;;;;;;;;;;;;;3.15;55.75;100280.06;5090300;28;19969;-41
2023/03/13 04:51:14;;;;;;;;;;;;;;;3.24;55.60;100287.94;5094423;28;19985;-41
2023/03/13 04:53:40;;;;;;;;;;;;;;;3.56;54.48;100284.09;5094166;28;20006;-41
2023/03/13 04:56:05;;;;;;;;;;;;;;;3.57;55.04;100284.91;5093763;28;19920;-41
2023/03/13 04:58:30;;;;;;;;;;;;;;;3.59;54.36;100285.59;5093667;28;20015;-41
2023/03/13 05:00:56;;;;;;;;;;;;;;;3.79;54.54;100294.22;5093765;28;19969;-41
2023/03/13 05:03:22;;;;;;;;;;;;;;;3.93;53.80;100291.13;5094606;28;20002;-41
2023/03/13 05:05:47;;;;;;;;;;;;;;;4.16;53.16;100296.78;5094374;28;19916;-41
2023/03/13 05:08:12;;;;;;;;;;;;;;;4.23;53.21;100302.31;5094417;28;20006;-42
2023/03/13 05:10:37;;;;;;;;;;;;;;;4.41;52.52;100305.78;5094376;28;19912;-40
2023/03/13 05:13:03;;;;;;;;;;;;;;;4.84;51.38;100306.00;5094880;28;20007;-42
2023/03/13 05:15:28;;;;;;;;;;;;;;;4.85;52.03;100305.84;5095169;28;20002;-42
2023/03/13 05:17:54;;;;;;;;;;;;;;;5.05;51.12;100310.97;5094543;28;20379;-39
2023/03/13 05:20:19;;;;;;;;;;;;;;;5.34;50.08;100323.84;5094309;28;19976;-41
2023/03/13 05:22:44;;;;;;;;;;;;;;;5.58;49.73;100320.53;5094704;28;19920;-42
2023/03/13 05:25:10;;;;;;;;;;;;;;;5.81;49.13;100320.00;5094516;28;20008;-42
2023/03/13 05:27:35;;;;;;;;;;;;;;;6.00;48.63;100330.34;5094248;28;19912;-40
2023/03/13 05:30:00;;;;;;;;;;;;;;;6.15;49.69;100327.06;5094368;28;19912;-41
2023/03/13 05:32:25;;;;;;;;;;;;;;;6.32;48.27;100334.06;5094305;28;19923;-40
2023/03/13 05:34:51;;;;;;;;;;;;;;;8.84;56.47;100342.59;5093529;28;20322;-40
2023/03/13 05:37:16;;;;;;;;;;;;;;;9.71;47.25;100338.63;5094331;28;19948;-40
2023/03/13 05:39:41;;;;;;;;;;;;;;;10.37;47.21;100342.16;5094236;28;19913;-42
2023/03/13 05:42:06;;;;;;;;;;;;;;;11.49;44.15;100340.72;5093885;28;19923;-42
2023/03/13 05:44:32;;;;;;;;;;;;;;;11.71;38.67;100346.81;5093988;28;19919;-42
2023/03/13 05:46:57;;;;;;;;;;;;;;;11.98;37.26;100346.97;5093809;28;20018;-42
2023/03/13 05:49:22;;;;;;;;;;;;;;;12.41;38.67;100341.38;5093440;28;19912;-42
2023/03/13 05:51:48;;;;;;;;;;;;;;;12.67;34.76;100345.97;5093743;28;20003;-41
2023/03/13 05:54:13;;;;;;;;;;;;;;;12.84;34.21;100357.09;5093160;28;19912;-42
2023/03/13 05:56:38;;;;;;;;;;;;;;;13.23;33.01;100363.50;5091843;28;19983;-42
2023/03/13 05:59:03;;;;;;;;;;;;;;;13.45;32.96;100355.31;5093255;28;20014;-42
2023/03/13 06:01:29;;;;;;;;;;;;;;;13.46;31.94;100360.44;5092257;28;19919;-42
2023/03/13 06:03:54;;;;;;;;;;;;;;;12.41;33.09;100357.41;5092985;28;19912;-42
2023/03/13 06:06:19;;;;;;;;;;;;;;;12.51;33.36;100359.72;5093707;28;19912;-42
2023/03/13 06:08:45;;;;;;;;;;;;;;;11.77;34.45;100374.53;5093385;28;19919;-41
2023/03/13 06:11:10;;;;;;;;;;;;;;;11.97;34.21;100372.00;5093335;28;19919;-42
2023/03/13 06:13:35;;;;;;;;;;;;;;;12.26;33.45;100373.59;5093342;28;19941;-43
2023/03/13 06:16:00;;;;;;;;;;;;;;;12.56;33.49;100359.09;5093018;28;19977;-43
2023/03/13 06:18:26;;;;;;;;;;;;;;;12.24;34.18;100372.13;5093314;28;19916;-43
2023/03/13 06:20:56;;;;;;;;;;;;;;;12.83;33.13;100365.31;5093173;28;20372;-43
2023/03/13 06:23:21;;;;;;;;;;;;;;;13.95;31.53;100365.47;5093045;28;19947;-42
2023/03/13 06:25:47;;;;;;;;;;;;;;;14.33;31.24;100378.13;5092861;28;20303;-43
2023/03/13 06:28:12;;;;;;;;;;;;;;;14.52;30.49;100377.19;5092623;28;19912;-42
2023/03/13 06:30:37;;;;;;;;;;;;;;;14.86;29.47;100377.84;5092786;28;19919;-42
2023/03/13 06:33:03;;;;;;;;;;;;;;;14.53;29.15;100383.38;5093098;28;19985;-43
2023/03/13 06:35:28;;;;;;;;;;;;;;;14.38;29.77;100384.47;5092773;28;20315;-43
2023/03/13 06:37:53;;;;;;;;;;;;;;;13.40;30.77;100379.16;5092774;28;20064;-42
2023/03/13 06:40:19;;;;;;;;;;;;;;;12.70;31.46;100376.81;5092451;28;19935;-42
2023/03/13 06:42:44;;;;;;;;;;;;;;;12.20;32.53;100382.38;5092523;28;19912;-43
2023/03/13 06:45:09;;;;;;;;;;;;;;;13.23;31.97;100373.34;5092777;28;20398;-42
2023/03/13 06:47:35;;;;;;;;;;;;;;;13.76;30.66;100369.84;5092577;28;19912;-42
2023/03/13 06:50:00;;;;;;;;;;;;;;;14.71;29.78;100380.84;5092303;28;20375;-42
2023/03/13 06:52:25;;;;;;;;;;;;;;;14.56;29.81;100380.25;5092478;28;19957;-42
2023/03/13 06:54:50;;;;;;;;;;;;;;;14.52;29.90;100381.72;5092169;28;20362;-43
2023/03/13 06:57:16;;;;;;;;;;;;;;;14.67;30.18;100379.63;5092095;28;19924;-42
2023/03/13 06:59:41;;;;;;;;;;;;;;;14.81;29.79;100375.84;5091873;28;20467;-42
2023/03/13 07:02:08;;;;;;;;;;;;;;;15.97;29.01;100380.84;5092052;28;20026;-42
2023/03/13 07:04:34;;;;;;;;;;;;;;;16.84;27.43;100372.53;5092432;28;19912;-43
2023/03/13 07:06:59;;;;;;;;;;;;;;;15.80;27.83;100370.72;5092076;28;20018;-43
2023/03/13 07:09:24;;;;;;;;;;;;;;;16.11;27.84;100370.78;5091700;28;20026;-43
2023/03/13 07:11:49;;;;;;;;;;;;;;;15.73;28.54;100377.16;5091130;28;19912;-42
2023/03/13 07:14:15;;;;;;;;;;;;;;;15.78;28.37;100372.81;5091775;28;19916;-44
2023/03/13 07:16:40;;;;;;;;;;;;;;;15.36;28.61;100374.38;5091858;28;19916;-42
2023/03/13 07:19:05;;;;;;;;;;;;;;;15.75;28.15;100351.78;5091667;28;19958;-43
2023/03/13 07:21:31;;;;;;;;;;;;;;;16.60;27.91;100368.91;5091350;28;19923;-43
2023/03/13 07:23:56;;;;;;;;;;;;;;;16.98;27.43;100373.13;5091395;28;19924;-43
2023/03/13 07:26:21;;;;;;;;;;;;;;;16.49;27.85;100372.38;5091729;28;20308;-43
2023/03/13 07:28:47;;;;;;;;;;;;;;;17.25;26.70;100378.94;5091429;28;20055;-43
2023/03/13 07:31:16;;;;;;;;;;;;;;;18.05;25.36;100382.06;5091355;28;19912;-44
2023/03/13 07:33:42;;;;;;;;;;;;;;;18.10;25.80;100376.81;5091436;28;20313;-42
2023/03/13 07:36:08;;;;;;;;;;;;;;;17.18;26.75;100376.34;5091249;28;19916;-42
2023/03/13 07:38:34;;;;;;;;;;;;;;;17.32;26.65;100374.25;5091333;28;20262;-44
2023/03/13 07:40:59;;;;;;;;;;;;;;;16.91;27.21;100375.13;5091201;28;19983;-42
2023/03/13 07:43:25;;;;;;;;;;;;;;;17.49;26.21;100373.56;5091039;28;19999;-43
2023/03/13 07:45:51;;;;;;;;;;;;;;;16.93;26.02;100365.78;5090718;28;19912;-42
2023/03/13 07:48:17;;;;;;;;;;;;;;;17.28;26.00;100369.56;5091715;28;20006;-42
2023/03/13 07:50:42;;;;;;;;;;;;;;;16.55;26.98;100374.16;5091193;28;19959;-42
2023/03/13 07:53:07;;;;;;;;;;;;;;;17.95;26.09;100364.69;5091296;28;19912;-42
2023/03/13 07:55:33;;;;;;;;;;;;;;;18.87;24.93;100365.66;5091272;28;20381;-42
2023/03/13 07:57:58;;;;;;;;;;;;;;;18.80;24.66;100364.97;5091201;28;19912;-42
2023/03/13 08:00:23;;;;;;;;;;;;;;;18.93;24.35;100363.84;5091043;28;19912;-43
2023/03/13 08:02:48;;;;;;;;;;;;;;;18.49;24.85;100366.28;5090214;28;19924;-42
2023/03/13 08:05:14;;;;;;;;;;;;;;;18.34;24.80;100370.31;5090715;28;20000;-43
2023/03/13 08:07:39;;;;;;;;;;;;;;;18.36;24.63;100370.88;5090733;28;19935;-42
2023/03/13 08:10:05;;;;;;;;;;;;;;;17.85;25.43;100356.38;5090925;28;19912;-42
2023/03/13 08:12:30;;;;;;;;;;;;;;;17.92;25.72;100358.94;5091007;28;19912;-42
2023/03/13 08:14:56;;;;;;;;;;;;;;;18.50;25.61;100349.03;5091101;28;19920;-42
2023/03/13 08:17:21;;;;;;;;;;;;;;;18.29;25.48;100347.81;5091080;28;19920;-42
2023/03/13 08:19:46;;;;;;;;;;;;;;;18.53;25.34;100346.69;5091244;28;19916;-42
2023/03/13 08:22:12;;;;;;;;;;;;;;;18.07;25.64;100340.41;5090994;28;19920;-41
2023/03/13 08:24:37;;;;;;;;;;;;;;;18.82;24.88;100341.28;5093110;28;20383;-42
2023/03/13 08:27:02;;;;;;;;;;;;;;;19.00;24.79;100336.72;5095121;28;19912;-42
2023/03/13 08:29:27;;;;;;;;;;;;;;;19.68;23.88;100335.56;5095059;28;20382;-42
2023/03/13 08:31:54;;;;;;;;;;;;;;;20.18;23.68;100331.13;5095164;28;20014;-42
2023/03/13 08:34:20;;;;;;;;;;;;;;;20.87;22.46;100337.78;5094620;28;19960;-43
2023/03/13 08:36:45;;;;;;;;;;;;;;;20.77;22.54;100327.69;5094758;28;19952;-41
2023/03/13 08:39:11;;;;;;;;;;;;;;;20.54;22.56;100339.59;5094651;28;19999;-42
2023/03/13 08:41:39;;;;;;;;;;;;;;;20.83;22.72;100339.38;5094753;28;19916;-42
2023/03/13 08:44:05;;;;;;;;;;;;;;;21.69;21.88;100338.38;5094478;28;20379;-41
2023/03/13 08:46:32;;;;;;;;;;;;;;;21.35;21.83;100338.69;5094313;28;19912;-42
2023/03/13 08:48:57;;;;;;;;;;;;;;;21.59;21.59;100332.88;5094425;28;19919;-42
2023/03/13 08:51:24;;;;;;;;;;;;;;;21.20;22.47;100342.09;5094409;28;19916;-42
2023/03/13 08:53:50;;;;;;;;;;;;;;;20.41;21.84;100343.53;5094847;28;19912;-41
2023/03/13 08:56:16;;;;;;;;;;;;;;;20.49;21.83;100348.47;5094462;28;19916;-41
2023/03/13 08:58:41;;;;;;;;;;;;;;;21.02;21.73;100339.81;5094642;28;20368;-42
2023/03/13 09:01:08;;;;;;;;;;;;;;;21.26;21.56;100338.34;5094511;28;19912;-42
2023/03/13 09:03:34;;;;;;;;;;;;;;;21.81;21.11;100343.56;5094557;28;19916;-42
2023/03/13 09:05:59;;;;;;;;;;;;;;;21.26;20.75;100337.53;5094424;28;19961;-44
2023/03/13 09:08:25;;;;;;;;;;;;;;;21.59;20.38;100344.56;5094521;28;19985;-42
2023/03/13 09:10:54;;;;;;;;;;;;;;;21.95;20.78;100349.31;5094080;28;19916;-42
2023/03/13 09:13:20;;;;;;;;;;;;;;;20.64;21.40;100355.16;5094121;28;19961;-43
2023/03/13 09:15:52;;;;;;;;;;;;;;;20.28;21.87;100343.91;5094033;28;19920;-47
2023/03/13 09:18:17;;;;;;;;;;;;;;;20.77;21.32;100341.22;5094046;28;20447;-43
2023/03/13 09:20:42;;;;;;;;;;;;;;;20.31;22.03;100333.44;5093978;28;19951;-41
2023/03/13 09:23:08;;;;;;;;;;;;;;;19.83;22.02;100336.88;5093647;28;20252;-41
2023/03/13 09:25:33;;;;;;;;;;;;;;;20.50;21.75;100333.06;5093728;28;19995;-40
2023/03/13 09:27:58;;;;;;;;;;;;;;;20.49;21.80;100326.84;5093540;28;20325;-40
2023/03/13 09:30:23;;;;;;;;;;;;;;;19.29;22.01;100323.97;5093301;28;19944;-42
2023/03/13 09:32:49;;;;;;;;;;;;;;;17.18;24.14;100322.56;5093720;28;20285;-41
2023/03/13 09:35:14;;;;;;;;;;;;;;;16.08;25.31;100322.91;5093606;28;19954;-42
2023/03/13 09:37:39;;;;;;;;;;;;;;;16.41;25.09;100333.19;5093304;28;19997;-42
2023/03/13 09:40:07;;;;;;;;;;;;;;;15.78;26.56;100324.50;5093310;28;19912;-42
2023/03/13 09:42:49;;;;;;;;;;;;;;;16.59;25.95;100319.72;5092986;28;19919;-41
2023/03/13 09:45:16;;;;;;;;;;;;;;;17.96;23.41;100323.22;5093087;28;19923;-42
2023/03/13 09:47:48;;;;;;;;;;;;;;;18.28;23.42;100317.38;5093161;28;19912;-43
2023/03/13 09:50:17;;;;;;;;;;;;;;;18.22;23.36;100312.13;5093687;28;19913;-43
2023/03/13 09:52:42;;;;;;;;;;;;;;;18.01;23.72;100303.66;5093186;28;19912;-43
2023/03/13 09:55:21;;;;;;;;;;;;;;;18.26;23.44;100302.50;5093115;28;19952;-42
2023/03/13 09:57:46;;;;;;;;;;;;;;;17.63;24.61;100293.41;5093602;28;19920;-43
2023/03/13 10:00:13;;;;;;;;;;;;;;;17.90;23.48;100291.88;5092573;28;19918;-41
2023/03/13 10:02:42;;;;;;;;;;;;;;;19.01;22.68;100289.81;5092607;28;19942;-42
2023/03/13 10:05:15;;;;;;;;;;;;;;;19.86;21.99;100285.91;5092497;28;20006;-42
2023/03/13 10:07:40;;;;;;;;;;;;;;;19.90;21.62;100289.72;5092697;28;19935;-44
2023/03/13 10:10:12;;;;;;;;;;;;;;;19.88;21.67;100301.84;5092657;28;20387;-42
2023/03/13 10:12:40;;;;;;;;;;;;;;;17.95;20.79;100288.44;5092681;28;19912;-43
2023/03/13 10:15:08;;;;;;;;;;;;;;;16.57;21.76;100283.41;5092642;28;19947;-43
2023/03/13 10:17:37;;;;;;;;;;;;;;;17.31;21.52;100277.66;5092992;28;19959;-43
2023/03/13 10:20:11;;;;;;;;;;;;;;;18.53;20.00;100282.00;5091737;28;19924;-41
2023/03/13 10:22:37;;;;;;;;;;;;;;;18.74;20.75;100274.25;5092125;28;19960;-42
2023/03/13 10:25:15;;;;;;;;;;;;;;;17.90;21.92;100274.91;5092595;28;19920;-44
2023/03/13 10:27:44;;;;;;;;;;;;;;;18.17;21.42;100272.47;5092006;28;19912;-41
2023/03/13 10:30:30;;;;;;;;;;;;;;;16.71;21.47;100268.69;5092374;28;19955;-43
2023/03/13 10:33:17;;;;;;;;;;;;;;;17.72;21.10;100260.50;5092201;28;20007;-42
2023/03/13 10:35:43;;;;;;;;;;;;;;;18.26;19.42;100267.47;5092289;28;19928;-44
2023/03/13 10:38:18;;;;;;;;;;;;;;;17.64;19.97;100262.75;5092545;28;19969;-43
2023/03/13 10:40:43;;;;;;;;;;;;;;;17.60;20.31;100259.72;5092258;28;19913;-43
2023/03/13 10:43:14;;;;;;;;;;;;;;;17.37;19.68;100261.41;5092408;28;19970;-42
2023/03/13 10:45:39;;;;;;;;;;;;;;;17.15;20.02;100261.19;5092369;28;19995;-42
2023/03/13 10:48:12;;;;;;;;;;;;;;;18.24;20.01;100248.88;5091452;28;19982;-37
2023/03/13 10:50:40;;;;;;;;;;;;;;;18.43;19.44;100245.97;5092089;28;19947;-36
2023/03/13 10:53:24;;;;;;;;;;;;;;;18.03;19.59;100238.78;5091773;28;19912;-36
2023/03/13 10:55:54;;;;;;;;;;;;;;;16.40;21.25;100232.19;5092050;28;20313;-36
2023/03/13 10:58:21;;;;;;;;;;;;;;;16.38;21.32;100237.78;5092067;28;19912;-38
2023/03/13 11:00:47;;;;;;;;;;;;;;;16.50;21.44;100228.94;5091830;28;19919;-36
2023/03/13 11:03:24;;;;;;;;;;;;;;;16.41;21.73;100229.28;5091681;28;19912;-38
2023/03/13 11:05:59;;;;;;;;;;;;;;;17.02;20.87;100223.78;5091284;28;19919;-37
2023/03/13 11:08:26;;;;;;;;;;;;;;;17.60;20.33;100213.97;5091531;28;19912;-37
2023/03/13 11:10:54;;;;;;;;;;;;;;;18.29;20.28;100218.53;5090342;28;20384;-37
2023/03/13 11:13:26;;;;;;;;;;;;;;;18.74;20.45;100210.38;5091612;28;19912;-37
2023/03/13 11:15:56;;;;;;;;;;;;;;;19.27;19.39;100218.19;5091360;28;19937;-37
2023/03/13 11:18:26;;;;;;;;;;;;;;;18.82;18.32;100203.78;5091637;28;19919;-37
2023/03/13 11:20:52;;;;;;;;;;;;;;;17.81;19.98;100195.53;5091857;28;19912;-37
2023/03/13 11:23:17;;;;;;;;;;;;;;;18.58;18.51;100195.00;5091214;28;19928;-37
2023/03/13 11:25:55;;;;;;;;;;;;;;;17.31;19.23;100189.72;5091307;28;19923;-37
2023/03/13 11:28:39;;;;;;;;;;;;;;;16.45;20.43;100185.84;5091524;28;19912;-37
2023/03/13 11:31:16;;;;;;;;;;;;;;;14.97;21.13;100199.47;5091318;28;20007;-37
2023/03/13 11:33:56;;;;;;;;;;;;;;;16.26;19.97;100195.84;5091341;28;19919;-37
2023/03/13 11:36:27;;;;;;;;;;;;;;;16.42;19.86;100185.25;5090764;28;19920;-37
2023/03/13 11:38:52;;;;;;;;;;;;;;;15.61;20.56;100182.06;5091032;28;20007;-36
2023/03/13 11:41:25;;;;;;;;;;;;;;;16.12;19.06;100179.94;5090685;28;20384;-36
2023/03/13 11:43:54;;;;;;;;;;;;;;;16.29;19.25;100176.59;5091029;28;20344;-37
2023/03/13 11:46:27;;;;;;;;;;;;;;;16.36;20.15;100169.25;5090983;28;19928;-36
2023/03/13 11:48:58;;;;;;;;;;;;;;;17.51;19.29;100158.91;5091287;28;19967;-36
2023/03/13 11:51:35;;;;;;;;;;;;;;;18.29;19.20;100151.97;5090932;28;20356;-37
2023/03/13 11:54:19;;;;;;;;;;;;;;;18.71;18.76;100161.53;5091190;28;19912;-37
2023/03/13 11:56:44;;;;;;;;;;;;;;;19.72;18.03;100147.78;5091087;28;19950;-36
2023/03/13 11:59:31;;;;;;;;;;;;;;;19.47;18.14;100140.16;5090726;28;19955;-36
2023/03/13 12:01:59;;;;;;;;;;;;;;;19.29;18.05;100141.31;5090940;28;19958;-38
2023/03/13 12:04:32;;;;;;;;;;;;;;;16.80;20.27;100129.44;5092270;28;19912;-37
2023/03/13 12:07:01;;;;;;;;;;;;;;;17.74;19.33;100123.84;5100529;28;19918;-35
2023/03/13 12:09:36;;;;;;;;;;;;;;;17.98;18.60;100126.44;5097194;28;20386;-37
2023/03/13 12:12:10;;;;;;;;;;;;;;;17.57;19.22;100120.25;5107526;28;19955;-37
2023/03/13 12:14:51;;;;;;;;;;;;;;;16.90;19.71;100123.50;5096193;28;19934;-37
2023/03/13 12:17:36;;;;;;;;;;;;;;;17.08;19.54;100112.59;5099329;28;20401;-37
2023/03/13 12:20:05;;;;;;;;;;;;;;;17.26;19.26;100114.28;5096278;28;19912;-40
2023/03/13 12:22:44;;;;;;;;;;;;;;;17.31;19.46;100110.91;5101467;28;19928;-37
2023/03/13 12:25:31;;;;;;;;;;;;;;;17.60;20.02;100119.78;5099583;28;19922;-36
2023/03/13 12:28:17;;;;;;;;;;;;;;;17.36;19.55;100113.69;5098276;28;19931;-37
2023/03/13 12:30:44;;;;;;;;;;;;;;;16.87;19.39;100110.50;5096930;28;19912;-36
2023/03/13 12:33:15;;;;;;;;;;;;;;;16.79;19.94;100106.28;5098571;28;19918;-37
2023/03/13 12:35:42;;;;;;;;;;;;;;;17.76;19.17;100102.88;5101255;28;20307;-50
2023/03/13 12:38:14;;;;;;;;;;;;;;;17.54;19.42;100110.00;5100170;28;19919;-36
2023/03/13 12:40:39;;;;;;;;;;;;;;;18.24;17.89;100107.97;5097359;28;20073;-37
2023/03/13 12:43:07;;;;;;;;;;;;;;;17.94;18.25;100115.31;5102209;28;19998;-37